sensor_id;sensor_type;location;lat;lon;timestamp;P1;durP1;ratioP1;P2;durP2;ratioP2
24787;SDS011;12883;52.662;5.196;2023-02-25T00:00:25;3.57;;;3.57;;
24787;SDS011;12883;52.662;5.196;2023-02-25T00:02:53;4.13;;;4.13;;
24787;SDS011;12883;52.662;5.196;2023-02-25T00:05:18;3.90;;;3.90;;
24787;SDS011;12883;52.662;5.196;2023-02-25T00:07:44;3.83;;;3.83;;
24787;SDS011;12883;52.662;5.196;2023-02-25T00:10:10;2.90;;;2.87;;
24787;SDS011;12883;52.662;5.196;2023-02-25T00:12:37;2.50;;;2.50;;
24787;SDS011;12883;52.662;5.196;2023-02-25T00:15:03;3.03;;;3.03;;
24787;SDS011;12883;52.662;5.196;2023-02-25T00:17:30;3.17;;;3.17;;
24787;SDS011;12883;52.662;5.196;2023-02-25T00:19:56;3.07;;;3.07;;
24787;SDS011;12883;52.662;5.196;2023-02-25T00:22:22;2.77;;;2.77;;
24787;SDS011;12883;52.662;5.196;2023-02-25T00:24:50;3.23;;;3.23;;
24787;SDS011;12883;52.662;5.196;2023-02-25T00:27:19;3.63;;;3.53;;
24787;SDS011;12883;52.662;5.196;2023-02-25T00:29:45;3.40;;;3.40;;
24787;SDS011;12883;52.662;5.196;2023-02-25T00:32:10;4.07;;;3.97;;
24787;SDS011;12883;52.662;5.196;2023-02-25T00:34:36;4.27;;;4.17;;
24787;SDS011;12883;52.662;5.196;2023-02-25T00:37:01;4.40;;;4.40;;
24787;SDS011;12883;52.662;5.196;2023-02-25T00:39:27;4.17;;;4.07;;
24787;SDS011;12883;52.662;5.196;2023-02-25T00:42:09;5.27;;;5.17;;
24787;SDS011;12883;52.662;5.196;2023-02-25T00:44:42;5.07;;;4.97;;
24787;SDS011;12883;52.662;5.196;2023-02-25T00:47:09;5.77;;;5.67;;
24787;SDS011;12883;52.662;5.196;2023-02-25T00:49:34;4.77;;;4.67;;
24787;SDS011;12883;52.662;5.196;2023-02-25T00:51:59;4.07;;;4.07;;
24787;SDS011;12883;52.662;5.196;2023-02-25T00:54:25;5.50;;;5.40;;
24787;SDS011;12883;52.662;5.196;2023-02-25T00:56:50;3.87;;;3.87;;
24787;SDS011;12883;52.662;5.196;2023-02-25T00:59:16;4.13;;;4.10;;
24787;SDS011;12883;52.662;5.196;2023-02-25T01:01:41;3.47;;;3.47;;
24787;SDS011;12883;52.662;5.196;2023-02-25T01:04:07;3.67;;;3.57;;
24787;SDS011;12883;52.662;5.196;2023-02-25T01:06:33;4.50;;;4.40;;
24787;SDS011;12883;52.662;5.196;2023-02-25T01:09:00;4.47;;;4.37;;
24787;SDS011;12883;52.662;5.196;2023-02-25T01:11:28;4.80;;;4.70;;
24787;SDS011;12883;52.662;5.196;2023-02-25T01:13:56;5.63;;;5.53;;
24787;SDS011;12883;52.662;5.196;2023-02-25T01:16:27;6.33;;;6.23;;
24787;SDS011;12883;52.662;5.196;2023-02-25T01:18:54;5.47;;;5.37;;
24787;SDS011;12883;52.662;5.196;2023-02-25T01:21:27;5.17;;;5.07;;
24787;SDS011;12883;52.662;5.196;2023-02-25T01:24:00;5.47;;;5.37;;
24787;SDS011;12883;52.662;5.196;2023-02-25T01:26:32;5.77;;;5.67;;
24787;SDS011;12883;52.662;5.196;2023-02-25T01:29:04;5.87;;;5.77;;
24787;SDS011;12883;52.662;5.196;2023-02-25T01:31:31;5.30;;;5.20;;
24787;SDS011;12883;52.662;5.196;2023-02-25T01:33:59;5.40;;;5.30;;
24787;SDS011;12883;52.662;5.196;2023-02-25T01:36:26;4.93;;;4.83;;
24787;SDS011;12883;52.662;5.196;2023-02-25T01:38:53;5.40;;;5.30;;
24787;SDS011;12883;52.662;5.196;2023-02-25T01:41:20;5.10;;;5.00;;
24787;SDS011;12883;52.662;5.196;2023-02-25T01:46:39;5.47;;;5.37;;
24787;SDS011;12883;52.662;5.196;2023-02-25T01:49:17;5.80;;;5.70;;
24787;SDS011;12883;52.662;5.196;2023-02-25T01:51:47;5.40;;;5.30;;
24787;SDS011;12883;52.662;5.196;2023-02-25T01:54:14;5.77;;;5.67;;
24787;SDS011;12883;52.662;5.196;2023-02-25T01:56:43;6.07;;;5.97;;
24787;SDS011;12883;52.662;5.196;2023-02-25T01:59:13;6.30;;;6.20;;
24787;SDS011;12883;52.662;5.196;2023-02-25T02:01:39;6.07;;;5.97;;
24787;SDS011;12883;52.662;5.196;2023-02-25T02:04:06;6.00;;;5.90;;
24787;SDS011;12883;52.662;5.196;2023-02-25T02:06:41;5.10;;;5.00;;
24787;SDS011;12883;52.662;5.196;2023-02-25T02:09:12;5.73;;;5.63;;
24787;SDS011;12883;52.662;5.196;2023-02-25T02:11:40;5.50;;;5.40;;
24787;SDS011;12883;52.662;5.196;2023-02-25T02:14:06;4.47;;;4.37;;
24787;SDS011;12883;52.662;5.196;2023-02-25T02:19:37;4.90;;;4.80;;
24787;SDS011;12883;52.662;5.196;2023-02-25T02:33:54;3.87;;;3.87;;
24787;SDS011;12883;52.662;5.196;2023-02-25T02:39:24;3.83;;;3.73;;
24787;SDS011;12883;52.662;5.196;2023-02-25T02:47:57;4.93;;;4.83;;
24787;SDS011;12883;52.662;5.196;2023-02-25T02:51:00;5.37;;;5.27;;
24787;SDS011;12883;52.662;5.196;2023-02-25T02:53:23;5.20;;;5.10;;
24787;SDS011;12883;52.662;5.196;2023-02-25T02:55:53;5.33;;;5.23;;
24787;SDS011;12883;52.662;5.196;2023-02-25T02:58:34;5.07;;;4.97;;
24787;SDS011;12883;52.662;5.196;2023-02-25T03:01:08;4.90;;;4.80;;
24787;SDS011;12883;52.662;5.196;2023-02-25T03:03:37;4.87;;;4.77;;
24787;SDS011;12883;52.662;5.196;2023-02-25T03:06:16;5.20;;;5.10;;
24787;SDS011;12883;52.662;5.196;2023-02-25T03:08:46;4.50;;;4.40;;
24787;SDS011;12883;52.662;5.196;2023-02-25T03:11:14;3.90;;;3.80;;
24787;SDS011;12883;52.662;5.196;2023-02-25T03:13:39;5.23;;;5.13;;
24787;SDS011;12883;52.662;5.196;2023-02-25T03:16:06;5.07;;;4.97;;
24787;SDS011;12883;52.662;5.196;2023-02-25T03:18:40;4.57;;;4.47;;
24787;SDS011;12883;52.662;5.196;2023-02-25T03:21:17;4.37;;;4.27;;
24787;SDS011;12883;52.662;5.196;2023-02-25T03:23:45;6.07;;;5.97;;
24787;SDS011;12883;52.662;5.196;2023-02-25T03:26:28;5.07;;;4.97;;
24787;SDS011;12883;52.662;5.196;2023-02-25T03:28:55;4.77;;;4.67;;
24787;SDS011;12883;52.662;5.196;2023-02-25T03:31:25;4.40;;;4.40;;
24787;SDS011;12883;52.662;5.196;2023-02-25T03:34:05;4.63;;;4.53;;
24787;SDS011;12883;52.662;5.196;2023-02-25T03:36:42;4.97;;;4.87;;
24787;SDS011;12883;52.662;5.196;2023-02-25T03:39:16;4.83;;;4.73;;
24787;SDS011;12883;52.662;5.196;2023-02-25T03:41:45;3.50;;;3.50;;
24787;SDS011;12883;52.662;5.196;2023-02-25T03:44:16;3.83;;;3.83;;
24787;SDS011;12883;52.662;5.196;2023-02-25T03:46:45;3.87;;;3.77;;
24787;SDS011;12883;52.662;5.196;2023-02-25T03:49:14;3.70;;;3.70;;
24787;SDS011;12883;52.662;5.196;2023-02-25T03:51:43;3.23;;;3.23;;
24787;SDS011;12883;52.662;5.196;2023-02-25T03:54:12;4.23;;;4.13;;
24787;SDS011;12883;52.662;5.196;2023-02-25T03:56:44;4.17;;;4.07;;
24787;SDS011;12883;52.662;5.196;2023-02-25T03:59:12;4.43;;;4.33;;
24787;SDS011;12883;52.662;5.196;2023-02-25T04:01:37;3.87;;;3.87;;
24787;SDS011;12883;52.662;5.196;2023-02-25T04:04:04;4.07;;;3.97;;
24787;SDS011;12883;52.662;5.196;2023-02-25T04:06:30;4.80;;;4.70;;
24787;SDS011;12883;52.662;5.196;2023-02-25T04:08:56;5.33;;;5.23;;
24787;SDS011;12883;52.662;5.196;2023-02-25T04:11:22;4.37;;;4.37;;
24787;SDS011;12883;52.662;5.196;2023-02-25T04:13:47;4.77;;;4.77;;
24787;SDS011;12883;52.662;5.196;2023-02-25T04:16:12;5.90;;;5.80;;
24787;SDS011;12883;52.662;5.196;2023-02-25T04:18:38;4.67;;;4.57;;
24787;SDS011;12883;52.662;5.196;2023-02-25T04:21:07;4.93;;;4.83;;
24787;SDS011;12883;52.662;5.196;2023-02-25T04:23:34;4.93;;;4.87;;
24787;SDS011;12883;52.662;5.196;2023-02-25T04:26:00;5.93;;;5.83;;
24787;SDS011;12883;52.662;5.196;2023-02-25T04:28:26;5.17;;;5.07;;
24787;SDS011;12883;52.662;5.196;2023-02-25T04:30:51;5.80;;;5.70;;
24787;SDS011;12883;52.662;5.196;2023-02-25T04:33:17;5.77;;;5.67;;
24787;SDS011;12883;52.662;5.196;2023-02-25T04:35:42;5.27;;;5.17;;
24787;SDS011;12883;52.662;5.196;2023-02-25T04:38:08;5.93;;;5.83;;
24787;SDS011;12883;52.662;5.196;2023-02-25T04:40:33;5.27;;;5.17;;
24787;SDS011;12883;52.662;5.196;2023-02-25T04:42:59;5.73;;;5.63;;
24787;SDS011;12883;52.662;5.196;2023-02-25T04:45:25;4.87;;;4.77;;
24787;SDS011;12883;52.662;5.196;2023-02-25T04:47:51;4.73;;;4.63;;
24787;SDS011;12883;52.662;5.196;2023-02-25T04:50:17;4.50;;;4.47;;
24787;SDS011;12883;52.662;5.196;2023-02-25T04:52:43;4.70;;;4.60;;
24787;SDS011;12883;52.662;5.196;2023-02-25T04:55:08;4.80;;;4.70;;
24787;SDS011;12883;52.662;5.196;2023-02-25T04:57:35;5.30;;;5.20;;
24787;SDS011;12883;52.662;5.196;2023-02-25T05:00:07;5.30;;;5.20;;
24787;SDS011;12883;52.662;5.196;2023-02-25T05:02:43;5.10;;;5.00;;
24787;SDS011;12883;52.662;5.196;2023-02-25T05:05:10;4.67;;;4.57;;
24787;SDS011;12883;52.662;5.196;2023-02-25T05:07:36;4.13;;;4.07;;
24787;SDS011;12883;52.662;5.196;2023-02-25T05:10:02;5.93;;;5.83;;
24787;SDS011;12883;52.662;5.196;2023-02-25T05:12:29;4.33;;;4.23;;
24787;SDS011;12883;52.662;5.196;2023-02-25T05:14:54;5.40;;;5.30;;
24787;SDS011;12883;52.662;5.196;2023-02-25T05:17:19;4.80;;;4.70;;
24787;SDS011;12883;52.662;5.196;2023-02-25T05:19:45;5.47;;;5.37;;
24787;SDS011;12883;52.662;5.196;2023-02-25T05:22:10;4.57;;;4.57;;
24787;SDS011;12883;52.662;5.196;2023-02-25T05:24:35;4.00;;;3.90;;
24787;SDS011;12883;52.662;5.196;2023-02-25T05:27:01;4.37;;;4.27;;
24787;SDS011;12883;52.662;5.196;2023-02-25T05:29:33;3.63;;;3.63;;
24787;SDS011;12883;52.662;5.196;2023-02-25T05:31:59;4.60;;;4.50;;
24787;SDS011;12883;52.662;5.196;2023-02-25T05:34:24;4.30;;;4.23;;
24787;SDS011;12883;52.662;5.196;2023-02-25T05:36:49;5.13;;;5.03;;
24787;SDS011;12883;52.662;5.196;2023-02-25T05:39:15;4.47;;;4.37;;
24787;SDS011;12883;52.662;5.196;2023-02-25T05:41:40;4.80;;;4.70;;
24787;SDS011;12883;52.662;5.196;2023-02-25T05:44:05;5.43;;;5.33;;
24787;SDS011;12883;52.662;5.196;2023-02-25T05:46:32;5.17;;;5.07;;
24787;SDS011;12883;52.662;5.196;2023-02-25T05:48:57;4.37;;;4.27;;
24787;SDS011;12883;52.662;5.196;2023-02-25T05:51:23;4.67;;;4.57;;
24787;SDS011;12883;52.662;5.196;2023-02-25T05:53:49;4.47;;;4.37;;
24787;SDS011;12883;52.662;5.196;2023-02-25T05:56:16;4.53;;;4.43;;
24787;SDS011;12883;52.662;5.196;2023-02-25T05:58:44;4.87;;;4.77;;
24787;SDS011;12883;52.662;5.196;2023-02-25T06:01:14;4.57;;;4.47;;
24787;SDS011;12883;52.662;5.196;2023-02-25T06:03:44;4.97;;;4.87;;
24787;SDS011;12883;52.662;5.196;2023-02-25T06:06:11;4.70;;;4.60;;
24787;SDS011;12883;52.662;5.196;2023-02-25T06:08:39;5.70;;;5.60;;
24787;SDS011;12883;52.662;5.196;2023-02-25T06:11:05;5.80;;;5.70;;
24787;SDS011;12883;52.662;5.196;2023-02-25T06:13:31;5.23;;;5.13;;
24787;SDS011;12883;52.662;5.196;2023-02-25T06:15:57;5.20;;;5.10;;
24787;SDS011;12883;52.662;5.196;2023-02-25T06:18:22;5.03;;;4.93;;
24787;SDS011;12883;52.662;5.196;2023-02-25T06:20:48;6.23;;;6.13;;
24787;SDS011;12883;52.662;5.196;2023-02-25T06:23:14;4.87;;;4.77;;
24787;SDS011;12883;52.662;5.196;2023-02-25T06:25:40;4.80;;;4.70;;
24787;SDS011;12883;52.662;5.196;2023-02-25T06:28:05;5.27;;;5.17;;
24787;SDS011;12883;52.662;5.196;2023-02-25T06:30:30;5.80;;;5.70;;
24787;SDS011;12883;52.662;5.196;2023-02-25T06:32:56;5.47;;;5.37;;
24787;SDS011;12883;52.662;5.196;2023-02-25T06:35:22;5.87;;;5.77;;
24787;SDS011;12883;52.662;5.196;2023-02-25T06:37:57;4.60;;;4.50;;
24787;SDS011;12883;52.662;5.196;2023-02-25T06:40:24;5.90;;;5.80;;
24787;SDS011;12883;52.662;5.196;2023-02-25T06:42:50;5.30;;;5.20;;
24787;SDS011;12883;52.662;5.196;2023-02-25T06:45:15;4.90;;;4.80;;
24787;SDS011;12883;52.662;5.196;2023-02-25T06:47:41;5.70;;;5.60;;
24787;SDS011;12883;52.662;5.196;2023-02-25T06:50:07;5.37;;;5.27;;
24787;SDS011;12883;52.662;5.196;2023-02-25T06:52:32;5.63;;;5.53;;
24787;SDS011;12883;52.662;5.196;2023-02-25T06:54:58;4.17;;;4.17;;
24787;SDS011;12883;52.662;5.196;2023-02-25T06:57:23;3.57;;;3.57;;
24787;SDS011;12883;52.662;5.196;2023-02-25T06:59:49;2.77;;;2.77;;
24787;SDS011;12883;52.662;5.196;2023-02-25T07:02:15;3.53;;;3.53;;
24787;SDS011;12883;52.662;5.196;2023-02-25T07:04:40;2.77;;;2.77;;
24787;SDS011;12883;52.662;5.196;2023-02-25T07:07:06;3.67;;;3.67;;
24787;SDS011;12883;52.662;5.196;2023-02-25T07:09:31;3.10;;;3.10;;
24787;SDS011;12883;52.662;5.196;2023-02-25T07:11:57;2.97;;;2.97;;
24787;SDS011;12883;52.662;5.196;2023-02-25T07:14:22;2.57;;;2.57;;
24787;SDS011;12883;52.662;5.196;2023-02-25T07:16:48;2.23;;;2.23;;
24787;SDS011;12883;52.662;5.196;2023-02-25T07:19:13;3.30;;;3.30;;
24787;SDS011;12883;52.662;5.196;2023-02-25T07:21:40;2.43;;;2.43;;
24787;SDS011;12883;52.662;5.196;2023-02-25T07:24:07;3.23;;;3.23;;
24787;SDS011;12883;52.662;5.196;2023-02-25T07:26:34;3.33;;;3.33;;
24787;SDS011;12883;52.662;5.196;2023-02-25T07:28:59;2.80;;;2.80;;
24787;SDS011;12883;52.662;5.196;2023-02-25T07:31:25;2.63;;;2.63;;
24787;SDS011;12883;52.662;5.196;2023-02-25T07:33:55;2.33;;;2.33;;
24787;SDS011;12883;52.662;5.196;2023-02-25T07:36:21;1.90;;;1.90;;
24787;SDS011;12883;52.662;5.196;2023-02-25T07:38:47;2.00;;;2.00;;
24787;SDS011;12883;52.662;5.196;2023-02-25T07:41:14;2.23;;;2.23;;
24787;SDS011;12883;52.662;5.196;2023-02-25T07:43:41;1.60;;;1.60;;
24787;SDS011;12883;52.662;5.196;2023-02-25T07:46:07;2.00;;;2.00;;
24787;SDS011;12883;52.662;5.196;2023-02-25T07:48:33;2.13;;;2.13;;
24787;SDS011;12883;52.662;5.196;2023-02-25T07:51:08;1.83;;;1.83;;
24787;SDS011;12883;52.662;5.196;2023-02-25T07:53:36;1.70;;;1.70;;
24787;SDS011;12883;52.662;5.196;2023-02-25T07:56:02;2.23;;;2.23;;
24787;SDS011;12883;52.662;5.196;2023-02-25T07:58:30;2.50;;;2.50;;
24787;SDS011;12883;52.662;5.196;2023-02-25T08:00:55;2.97;;;2.97;;
24787;SDS011;12883;52.662;5.196;2023-02-25T08:03:21;1.90;;;1.90;;
24787;SDS011;12883;52.662;5.196;2023-02-25T08:05:48;2.93;;;2.93;;
24787;SDS011;12883;52.662;5.196;2023-02-25T08:08:15;2.47;;;2.47;;
24787;SDS011;12883;52.662;5.196;2023-02-25T08:10:40;2.33;;;2.33;;
24787;SDS011;12883;52.662;5.196;2023-02-25T08:13:05;2.87;;;2.87;;
24787;SDS011;12883;52.662;5.196;2023-02-25T08:15:31;2.67;;;2.67;;
24787;SDS011;12883;52.662;5.196;2023-02-25T08:17:56;2.93;;;2.93;;
24787;SDS011;12883;52.662;5.196;2023-02-25T08:20:21;3.20;;;3.20;;
24787;SDS011;12883;52.662;5.196;2023-02-25T08:22:47;2.70;;;2.70;;
24787;SDS011;12883;52.662;5.196;2023-02-25T08:25:12;2.40;;;2.40;;
24787;SDS011;12883;52.662;5.196;2023-02-25T08:27:37;2.90;;;2.90;;
24787;SDS011;12883;52.662;5.196;2023-02-25T08:30:03;2.57;;;2.57;;
24787;SDS011;12883;52.662;5.196;2023-02-25T08:32:32;2.93;;;2.93;;
24787;SDS011;12883;52.662;5.196;2023-02-25T08:34:59;1.90;;;1.90;;
24787;SDS011;12883;52.662;5.196;2023-02-25T08:37:25;1.57;;;1.57;;
24787;SDS011;12883;52.662;5.196;2023-02-25T08:39:53;1.67;;;1.67;;
24787;SDS011;12883;52.662;5.196;2023-02-25T08:42:20;1.37;;;1.37;;
24787;SDS011;12883;52.662;5.196;2023-02-25T08:44:46;1.03;;;1.03;;
24787;SDS011;12883;52.662;5.196;2023-02-25T08:47:12;1.47;;;1.47;;
24787;SDS011;12883;52.662;5.196;2023-02-25T08:49:38;1.10;;;1.10;;
24787;SDS011;12883;52.662;5.196;2023-02-25T08:52:04;2.00;;;2.00;;
24787;SDS011;12883;52.662;5.196;2023-02-25T08:54:29;1.50;;;1.50;;
24787;SDS011;12883;52.662;5.196;2023-02-25T08:56:55;1.70;;;1.70;;
24787;SDS011;12883;52.662;5.196;2023-02-25T08:59:21;2.17;;;2.17;;
24787;SDS011;12883;52.662;5.196;2023-02-25T09:01:46;1.90;;;1.90;;
24787;SDS011;12883;52.662;5.196;2023-02-25T09:04:17;1.30;;;1.30;;
24787;SDS011;12883;52.662;5.196;2023-02-25T09:06:45;1.60;;;1.60;;
24787;SDS011;12883;52.662;5.196;2023-02-25T09:09:12;2.03;;;2.03;;
24787;SDS011;12883;52.662;5.196;2023-02-25T09:11:39;1.50;;;1.50;;
24787;SDS011;12883;52.662;5.196;2023-02-25T09:14:05;2.10;;;2.10;;
24787;SDS011;12883;52.662;5.196;2023-02-25T09:16:31;1.90;;;1.90;;
24787;SDS011;12883;52.662;5.196;2023-02-25T09:18:56;1.67;;;1.67;;
24787;SDS011;12883;52.662;5.196;2023-02-25T09:21:22;2.03;;;2.03;;
24787;SDS011;12883;52.662;5.196;2023-02-25T09:23:47;1.73;;;1.73;;
24787;SDS011;12883;52.662;5.196;2023-02-25T09:26:15;1.53;;;1.53;;
24787;SDS011;12883;52.662;5.196;2023-02-25T09:28:41;1.23;;;1.23;;
24787;SDS011;12883;52.662;5.196;2023-02-25T09:31:06;1.20;;;1.20;;
24787;SDS011;12883;52.662;5.196;2023-02-25T09:33:32;1.20;;;1.20;;
24787;SDS011;12883;52.662;5.196;2023-02-25T09:36:15;1.60;;;1.60;;
24787;SDS011;12883;52.662;5.196;2023-02-25T09:38:43;1.67;;;1.67;;
24787;SDS011;12883;52.662;5.196;2023-02-25T09:46:36;2.20;;;2.20;;
24787;SDS011;12883;52.662;5.196;2023-02-25T09:49:17;2.27;;;2.27;;
24787;SDS011;12883;52.662;5.196;2023-02-25T09:51:52;2.13;;;2.13;;
24787;SDS011;12883;52.662;5.196;2023-02-25T09:54:25;2.23;;;2.23;;
24787;SDS011;12883;52.662;5.196;2023-02-25T09:56:54;2.60;;;2.60;;
24787;SDS011;12883;52.662;5.196;2023-02-25T09:59:23;1.80;;;1.80;;
24787;SDS011;12883;52.662;5.196;2023-02-25T10:01:54;2.53;;;2.53;;
24787;SDS011;12883;52.662;5.196;2023-02-25T10:04:29;2.90;;;2.90;;
24787;SDS011;12883;52.662;5.196;2023-02-25T10:07:06;1.83;;;1.83;;
24787;SDS011;12883;52.662;5.196;2023-02-25T10:15:07;1.77;;;1.77;;
24787;SDS011;12883;52.662;5.196;2023-02-25T10:25:56;1.30;;;1.30;;
24787;SDS011;12883;52.662;5.196;2023-02-25T10:28:26;1.27;;;1.27;;
24787;SDS011;12883;52.662;5.196;2023-02-25T10:30:57;1.63;;;1.63;;
24787;SDS011;12883;52.662;5.196;2023-02-25T10:33:30;1.87;;;1.87;;
24787;SDS011;12883;52.662;5.196;2023-02-25T10:36:08;1.77;;;1.77;;
24787;SDS011;12883;52.662;5.196;2023-02-25T10:38:52;1.77;;;1.77;;
24787;SDS011;12883;52.662;5.196;2023-02-25T10:41:19;1.40;;;1.40;;
24787;SDS011;12883;52.662;5.196;2023-02-25T10:43:46;2.10;;;2.10;;
24787;SDS011;12883;52.662;5.196;2023-02-25T10:49:22;1.97;;;1.97;;
24787;SDS011;12883;52.662;5.196;2023-02-25T10:51:55;1.73;;;1.73;;
24787;SDS011;12883;52.662;5.196;2023-02-25T10:54:34;1.63;;;1.63;;
24787;SDS011;12883;52.662;5.196;2023-02-25T10:57:14;2.17;;;2.17;;
24787;SDS011;12883;52.662;5.196;2023-02-25T10:59:41;2.00;;;2.00;;
24787;SDS011;12883;52.662;5.196;2023-02-25T11:02:42;2.17;;;2.17;;
24787;SDS011;12883;52.662;5.196;2023-02-25T11:05:05;1.50;;;1.50;;
24787;SDS011;12883;52.662;5.196;2023-02-25T11:07:39;1.47;;;1.47;;
24787;SDS011;12883;52.662;5.196;2023-02-25T11:12:46;2.33;;;2.33;;
24787;SDS011;12883;52.662;5.196;2023-02-25T11:17:51;1.90;;;1.90;;
24787;SDS011;12883;52.662;5.196;2023-02-25T11:20:22;1.60;;;1.60;;
24787;SDS011;12883;52.662;5.196;2023-02-25T11:22:53;2.00;;;2.00;;
24787;SDS011;12883;52.662;5.196;2023-02-25T11:25:39;1.77;;;1.77;;
24787;SDS011;12883;52.662;5.196;2023-02-25T11:28:24;1.77;;;1.77;;
24787;SDS011;12883;52.662;5.196;2023-02-25T11:30:53;1.50;;;1.50;;
24787;SDS011;12883;52.662;5.196;2023-02-25T11:33:30;1.87;;;1.87;;
24787;SDS011;12883;52.662;5.196;2023-02-25T11:35:59;2.30;;;2.30;;
24787;SDS011;12883;52.662;5.196;2023-02-25T11:38:36;2.40;;;2.40;;
24787;SDS011;12883;52.662;5.196;2023-02-25T11:41:16;2.80;;;2.80;;
24787;SDS011;12883;52.662;5.196;2023-02-25T11:43:45;3.17;;;3.17;;
24787;SDS011;12883;52.662;5.196;2023-02-25T11:53:57;2.53;;;2.53;;
24787;SDS011;12883;52.662;5.196;2023-02-25T11:56:59;2.63;;;2.63;;
24787;SDS011;12883;52.662;5.196;2023-02-25T11:59:29;2.20;;;2.20;;
24787;SDS011;12883;52.662;5.196;2023-02-25T12:13:36;2.33;;;2.33;;
24787;SDS011;12883;52.662;5.196;2023-02-25T12:32:48;2.37;;;2.37;;
24787;SDS011;12883;52.662;5.196;2023-02-25T12:40:59;2.73;;;2.73;;
24787;SDS011;12883;52.662;5.196;2023-02-25T12:43:46;2.40;;;2.40;;
24787;SDS011;12883;52.662;5.196;2023-02-25T12:56:44;1.90;;;1.90;;
24787;SDS011;12883;52.662;5.196;2023-02-25T13:06:06;2.83;;;2.83;;
24787;SDS011;12883;52.662;5.196;2023-02-25T13:09:10;2.50;;;2.50;;
24787;SDS011;12883;52.662;5.196;2023-02-25T13:14:31;2.50;;;2.50;;
24787;SDS011;12883;52.662;5.196;2023-02-25T13:31:15;2.30;;;2.30;;
24787;SDS011;12883;52.662;5.196;2023-02-25T13:33:48;1.90;;;1.90;;
24787;SDS011;12883;52.662;5.196;2023-02-25T13:36:43;1.97;;;1.97;;
24787;SDS011;12883;52.662;5.196;2023-02-25T13:42:16;1.57;;;1.57;;
24787;SDS011;12883;52.662;5.196;2023-02-25T13:47:46;1.90;;;1.90;;
24787;SDS011;12883;52.662;5.196;2023-02-25T13:50:32;1.47;;;1.47;;
24787;SDS011;12883;52.662;5.196;2023-02-25T14:01:33;2.10;;;2.10;;
24787;SDS011;12883;52.662;5.196;2023-02-25T14:10:16;2.00;;;2.00;;
24787;SDS011;12883;52.662;5.196;2023-02-25T14:15:44;2.17;;;2.17;;
24787;SDS011;12883;52.662;5.196;2023-02-25T14:18:31;2.60;;;2.60;;
24787;SDS011;12883;52.662;5.196;2023-02-25T14:26:36;2.40;;;2.40;;
24787;SDS011;12883;52.662;5.196;2023-02-25T14:29:17;1.87;;;1.87;;
24787;SDS011;12883;52.662;5.196;2023-02-25T14:45:43;2.30;;;2.30;;
24787;SDS011;12883;52.662;5.196;2023-02-25T14:51:00;1.83;;;1.83;;
24787;SDS011;12883;52.662;5.196;2023-02-25T14:56:24;1.93;;;1.93;;
24787;SDS011;12883;52.662;5.196;2023-02-25T15:05:03;1.53;;;1.53;;
24787;SDS011;12883;52.662;5.196;2023-02-25T15:23:55;2.53;;;2.53;;
24787;SDS011;12883;52.662;5.196;2023-02-25T15:29:15;2.33;;;2.33;;
24787;SDS011;12883;52.662;5.196;2023-02-25T15:32:10;2.17;;;2.17;;
24787;SDS011;12883;52.662;5.196;2023-02-25T15:34:52;1.80;;;1.80;;
24787;SDS011;12883;52.662;5.196;2023-02-25T15:40:00;2.20;;;2.20;;
24787;SDS011;12883;52.662;5.196;2023-02-25T15:42:48;2.37;;;2.37;;
24787;SDS011;12883;52.662;5.196;2023-02-25T15:53:08;2.17;;;2.17;;
24787;SDS011;12883;52.662;5.196;2023-02-25T15:58:01;2.70;;;2.70;;
24787;SDS011;12883;52.662;5.196;2023-02-25T16:05:57;2.43;;;2.43;;
24787;SDS011;12883;52.662;5.196;2023-02-25T16:08:48;1.90;;;1.90;;
24787;SDS011;12883;52.662;5.196;2023-02-25T16:11:25;1.60;;;1.60;;
24787;SDS011;12883;52.662;5.196;2023-02-25T16:14:14;1.80;;;1.80;;
24787;SDS011;12883;52.662;5.196;2023-02-25T16:16:46;2.30;;;2.30;;
24787;SDS011;12883;52.662;5.196;2023-02-25T16:19:15;2.20;;;2.20;;
24787;SDS011;12883;52.662;5.196;2023-02-25T16:21:44;2.00;;;2.00;;
24787;SDS011;12883;52.662;5.196;2023-02-25T16:24:12;1.80;;;1.80;;
24787;SDS011;12883;52.662;5.196;2023-02-25T16:26:48;1.80;;;1.80;;
24787;SDS011;12883;52.662;5.196;2023-02-25T16:32:09;2.07;;;2.07;;
24787;SDS011;12883;52.662;5.196;2023-02-25T16:37:44;2.70;;;2.70;;
24787;SDS011;12883;52.662;5.196;2023-02-25T16:40:30;1.93;;;1.93;;
24787;SDS011;12883;52.662;5.196;2023-02-25T16:43:00;2.13;;;2.13;;
24787;SDS011;12883;52.662;5.196;2023-02-25T16:48:07;1.70;;;1.70;;
24787;SDS011;12883;52.662;5.196;2023-02-25T16:50:40;1.97;;;1.97;;
24787;SDS011;12883;52.662;5.196;2023-02-25T16:53:11;1.77;;;1.77;;
24787;SDS011;12883;52.662;5.196;2023-02-25T16:55:45;2.17;;;2.17;;
24787;SDS011;12883;52.662;5.196;2023-02-25T17:00:55;2.20;;;2.20;;
24787;SDS011;12883;52.662;5.196;2023-02-25T17:03:23;1.57;;;1.57;;
24787;SDS011;12883;52.662;5.196;2023-02-25T17:08:25;2.33;;;2.33;;
24787;SDS011;12883;52.662;5.196;2023-02-25T17:10:51;1.80;;;1.80;;
24787;SDS011;12883;52.662;5.196;2023-02-25T17:13:54;2.67;;;2.67;;
24787;SDS011;12883;52.662;5.196;2023-02-25T17:16:56;2.33;;;2.33;;
24787;SDS011;12883;52.662;5.196;2023-02-25T17:19:06;2.13;;;2.13;;
24787;SDS011;12883;52.662;5.196;2023-02-25T17:21:40;2.00;;;2.00;;
24787;SDS011;12883;52.662;5.196;2023-02-25T17:24:11;1.80;;;1.80;;
24787;SDS011;12883;52.662;5.196;2023-02-25T17:26:42;2.03;;;2.03;;
24787;SDS011;12883;52.662;5.196;2023-02-25T17:29:11;1.73;;;1.73;;
24787;SDS011;12883;52.662;5.196;2023-02-25T17:31:43;1.40;;;1.40;;
24787;SDS011;12883;52.662;5.196;2023-02-25T17:34:15;1.90;;;1.90;;
24787;SDS011;12883;52.662;5.196;2023-02-25T17:36:43;1.30;;;1.30;;
24787;SDS011;12883;52.662;5.196;2023-02-25T17:39:12;2.07;;;2.07;;
24787;SDS011;12883;52.662;5.196;2023-02-25T17:41:40;1.47;;;1.47;;
24787;SDS011;12883;52.662;5.196;2023-02-25T17:44:09;1.73;;;1.73;;
24787;SDS011;12883;52.662;5.196;2023-02-25T17:46:39;1.90;;;1.90;;
24787;SDS011;12883;52.662;5.196;2023-02-25T17:51:45;1.33;;;1.33;;
24787;SDS011;12883;52.662;5.196;2023-02-25T17:54:16;1.80;;;1.80;;
24787;SDS011;12883;52.662;5.196;2023-02-25T17:56:43;1.67;;;1.67;;
24787;SDS011;12883;52.662;5.196;2023-02-25T18:02:38;1.97;;;1.97;;
24787;SDS011;12883;52.662;5.196;2023-02-25T18:04:47;2.20;;;2.20;;
24787;SDS011;12883;52.662;5.196;2023-02-25T18:09:44;1.53;;;1.53;;
24787;SDS011;12883;52.662;5.196;2023-02-25T18:12:13;1.80;;;1.80;;
24787;SDS011;12883;52.662;5.196;2023-02-25T18:15:05;1.67;;;1.67;;
24787;SDS011;12883;52.662;5.196;2023-02-25T18:17:38;1.87;;;1.87;;
24787;SDS011;12883;52.662;5.196;2023-02-25T18:20:07;1.23;;;1.23;;
24787;SDS011;12883;52.662;5.196;2023-02-25T18:22:47;1.37;;;1.37;;
24787;SDS011;12883;52.662;5.196;2023-02-25T18:25:30;1.43;;;1.43;;
24787;SDS011;12883;52.662;5.196;2023-02-25T18:27:59;1.83;;;1.83;;
24787;SDS011;12883;52.662;5.196;2023-02-25T18:30:26;1.33;;;1.33;;
24787;SDS011;12883;52.662;5.196;2023-02-25T18:32:53;1.40;;;1.40;;
24787;SDS011;12883;52.662;5.196;2023-02-25T18:35:21;1.70;;;1.70;;
24787;SDS011;12883;52.662;5.196;2023-02-25T18:37:48;1.53;;;1.53;;
24787;SDS011;12883;52.662;5.196;2023-02-25T18:40:26;1.60;;;1.60;;
24787;SDS011;12883;52.662;5.196;2023-02-25T18:42:54;1.50;;;1.50;;
24787;SDS011;12883;52.662;5.196;2023-02-25T18:45:21;1.77;;;1.77;;
24787;SDS011;12883;52.662;5.196;2023-02-25T18:47:48;1.23;;;1.23;;
24787;SDS011;12883;52.662;5.196;2023-02-25T18:50:14;1.30;;;1.30;;
24787;SDS011;12883;52.662;5.196;2023-02-25T18:52:40;1.87;;;1.87;;
24787;SDS011;12883;52.662;5.196;2023-02-25T18:55:07;1.57;;;1.57;;
24787;SDS011;12883;52.662;5.196;2023-02-25T18:57:37;1.43;;;1.43;;
24787;SDS011;12883;52.662;5.196;2023-02-25T19:00:02;1.70;;;1.70;;
24787;SDS011;12883;52.662;5.196;2023-02-25T19:02:32;1.67;;;1.67;;
24787;SDS011;12883;52.662;5.196;2023-02-25T19:05:00;1.83;;;1.83;;
24787;SDS011;12883;52.662;5.196;2023-02-25T19:07:28;1.50;;;1.50;;